createdAt,value
2022-08-26T00:04:12.201Z,101354.69
2022-08-26T00:09:16.149Z,101358.41
2022-08-26T00:14:18.805Z,101361.28
2022-08-26T00:19:21.140Z,101365.38
2022-08-26T00:24:23.650Z,101357.97
2022-08-26T00:29:25.866Z,101351.00
2022-08-26T00:34:28.663Z,101357.56
2022-08-26T00:39:31.667Z,101343.72
2022-08-26T00:44:34.307Z,101341.22
2022-08-26T00:49:43.568Z,101344.16
2022-08-26T00:55:06.949Z,101351.41
2022-08-26T01:00:14.507Z,101350.16
2022-08-26T01:05:18.367Z,101348.19
2022-08-26T01:10:26.343Z,101357.81
2022-08-26T01:15:37.478Z,101348.84
2022-08-26T01:21:24.760Z,101345.47
2022-08-26T01:26:34.780Z,101360.53
2022-08-26T01:31:45.540Z,101357.56
2022-08-26T01:36:56.711Z,101361.16
2022-08-26T01:42:03.233Z,101368.91
2022-08-26T01:47:06.853Z,101369.28
2022-08-26T01:52:11.562Z,101379.59
2022-08-26T01:57:19.014Z,101383.56
2022-08-26T02:02:21.411Z,101388.66
2022-08-26T02:07:26.826Z,101387.75
2022-08-26T02:12:30.705Z,101389.00
2022-08-26T02:17:45.845Z,101393.00
2022-08-26T02:22:48.377Z,101393.38
2022-08-26T02:27:51.643Z,101405.00
2022-08-26T02:32:53.871Z,101402.25
2022-08-26T02:37:56.624Z,101401.41
2022-08-26T02:43:00.174Z,101386.25
2022-08-26T02:48:15.593Z,101404.19
2022-08-26T02:53:24.485Z,101400.22
2022-08-26T02:58:27.358Z,101402.44
2022-08-26T03:03:29.572Z,101401.28
2022-08-26T03:08:32.663Z,101406.75
2022-08-26T03:13:34.824Z,101395.97
2022-08-26T03:18:37.260Z,101398.16
2022-08-26T03:23:41.985Z,101400.97
2022-08-26T03:28:44.911Z,101406.69
2022-08-26T03:33:47.062Z,101399.13
2022-08-26T03:38:51.721Z,101399.94
2022-08-26T03:43:55.014Z,101401.47
2022-08-26T03:49:01.339Z,101404.13
2022-08-26T03:54:04.120Z,101405.81
2022-08-26T03:59:07.681Z,101407.34
2022-08-26T04:04:09.786Z,101410.56
2022-08-26T04:09:20.889Z,101404.53
2022-08-26T04:14:25.536Z,101415.72
2022-08-26T04:19:27.706Z,101406.75
2022-08-26T04:24:29.901Z,101399.75
2022-08-26T04:29:32.356Z,101402.28
2022-08-26T04:34:36.364Z,101388.59
2022-08-26T04:39:38.539Z,101395.69
2022-08-26T04:44:40.730Z,101401.88
2022-08-26T04:49:42.918Z,101400.31
2022-08-26T04:54:45.098Z,101393.91
2022-08-26T04:59:47.568Z,101391.50
2022-08-26T05:04:51.948Z,101396.94
2022-08-26T05:09:54.142Z,101389.47
2022-08-26T05:14:56.812Z,101393.13
2022-08-26T05:19:59.635Z,101398.16
2022-08-26T05:25:02.037Z,101394.75
2022-08-26T05:30:04.562Z,101409.53
2022-08-26T05:35:08.996Z,101410.84
2022-08-26T05:40:11.806Z,101403.50
2022-08-26T05:45:13.946Z,101400.63
2022-08-26T05:50:16.216Z,101405.59
2022-08-26T05:55:18.733Z,101406.34
2022-08-26T06:00:20.895Z,101407.94
2022-08-26T06:05:23.142Z,101410.63
2022-08-26T06:10:33.134Z,101406.84
2022-08-26T06:15:42.021Z,101413.59
2022-08-26T06:20:49.529Z,101410.63
2022-08-26T06:26:00.463Z,101414.50
2022-08-26T06:31:03.595Z,101420.47
2022-08-26T06:36:06.674Z,101421.25
2022-08-26T06:41:09.125Z,101425.81
2022-08-26T06:46:13.563Z,101430.00
2022-08-26T06:51:23.680Z,101423.28
2022-08-26T06:56:29.326Z,101432.84
2022-08-26T07:01:35.558Z,101427.50
2022-08-26T07:06:40.082Z,101430.38
2022-08-26T07:11:42.273Z,101433.44
2022-08-26T07:16:44.610Z,101433.94
2022-08-26T07:21:46.872Z,101436.47
2022-08-26T07:26:51.551Z,101445.81
2022-08-26T07:31:53.904Z,101450.19
2022-08-26T07:36:59.031Z,101451.41
2022-08-26T07:42:07.535Z,101458.50
2022-08-26T07:47:25.115Z,101460.28
2022-08-26T07:52:30.219Z,101459.84
2022-08-26T07:57:32.919Z,101466.34
2022-08-26T08:02:37.077Z,101464.69
2022-08-26T08:07:44.865Z,101469.63
2022-08-26T08:12:48.425Z,101471.63
2022-08-26T08:17:54.710Z,101486.81
2022-08-26T08:23:03.469Z,101490.25
2022-08-26T08:28:05.748Z,101488.75
2022-08-26T08:33:41.237Z,101493.25
2022-08-26T08:38:44.954Z,101487.91
2022-08-26T08:43:47.605Z,101494.28
2022-08-26T08:48:55.805Z,101494.44
2022-08-26T08:53:59.157Z,101493.09
2022-08-26T08:59:20.745Z,101490.25
2022-08-26T09:04:23.526Z,101492.56
2022-08-26T09:09:31.985Z,101487.03
2022-08-26T09:14:34.055Z,101495.34
2022-08-26T09:19:40.178Z,101501.63
2022-08-26T09:24:48.491Z,101495.97
2022-08-26T09:29:51.357Z,101499.69
2022-08-26T09:35:00.976Z,101500.06
2022-08-26T09:40:17.056Z,101494.75
2022-08-26T09:45:28.097Z,101501.63
2022-08-26T09:50:52.959Z,101504.66
2022-08-26T09:56:25.847Z,101506.06
2022-08-26T10:01:42.045Z,101512.47
2022-08-26T10:07:03.420Z,101519.75
2022-08-26T10:12:16.484Z,101514.25
2022-08-26T10:17:40.619Z,101519.66
2022-08-26T10:22:52.574Z,101514.25
2022-08-26T10:28:03.396Z,101511.72
2022-08-26T10:33:09.541Z,101514.97
2022-08-26T10:38:15.893Z,101511.56
2022-08-26T10:43:35.860Z,101518.72
2022-08-26T10:48:49.382Z,101511.03
2022-08-26T10:54:01.614Z,101505.38
2022-08-26T10:59:17.522Z,101510.25
2022-08-26T11:04:25.586Z,101515.09
2022-08-26T11:09:46.487Z,101513.47
2022-08-26T11:14:58.482Z,101526.03
2022-08-26T11:20:03.948Z,101513.91
2022-08-26T11:25:13.577Z,101515.34
2022-08-26T11:30:15.663Z,101512.75
2022-08-26T11:35:20.537Z,101513.81
2022-08-26T11:40:31.868Z,101509.13
2022-08-26T11:45:36.049Z,101515.75
2022-08-26T11:50:39.497Z,101507.59
2022-08-26T11:55:42.793Z,101508.13
2022-08-26T12:00:54.760Z,101504.88
2022-08-26T12:05:58.192Z,101512.81
2022-08-26T12:11:05.802Z,101516.56
2022-08-26T12:16:09.076Z,101525.78
2022-08-26T12:21:21.506Z,101518.00
2022-08-26T12:26:30.447Z,101526.75
2022-08-26T12:31:41.339Z,101529.25
2022-08-26T12:36:52.047Z,101504.19
2022-08-26T12:41:55.994Z,101505.28
2022-08-26T12:47:04.203Z,101528.63
2022-08-26T12:52:19.331Z,101528.72
2022-08-26T12:57:30.647Z,101525.81
2022-08-26T13:02:37.581Z,101527.84
2022-08-26T13:07:39.749Z,101510.09
2022-08-26T13:12:41.893Z,101502.69
2022-08-26T13:17:44.065Z,101493.50
2022-08-26T13:22:46.114Z,101486.66
2022-08-26T13:27:55.966Z,101502.38
2022-08-26T13:33:00.411Z,101502.16
2022-08-26T13:38:04.567Z,101487.59
2022-08-26T13:43:10.392Z,101491.56
2022-08-26T13:48:12.598Z,101489.78
2022-08-26T13:53:16.652Z,101477.72
2022-08-26T13:58:18.814Z,101496.25
2022-08-26T14:03:21.267Z,101507.31
2022-08-26T14:08:23.590Z,101529.31
2022-08-26T14:13:25.760Z,101522.69
2022-08-26T14:18:35.499Z,101523.69
2022-08-26T14:23:40.617Z,101525.63
2022-08-26T14:28:42.793Z,101514.41
2022-08-26T14:33:45.318Z,101511.56
2022-08-26T14:38:47.319Z,101507.75
2022-08-26T14:43:54.075Z,101510.09
2022-08-26T14:49:01.047Z,101512.22
2022-08-26T14:54:04.333Z,101516.88
2022-08-26T14:59:06.591Z,101517.22
2022-08-26T15:04:08.787Z,101527.38
2022-08-26T15:09:11.409Z,101531.53
2022-08-26T15:14:18.932Z,101538.22
2022-08-26T15:19:23.828Z,101534.50
2022-08-26T15:24:26.811Z,101526.56
2022-08-26T15:29:29.003Z,101519.56
2022-08-26T15:34:31.394Z,101518.56
2022-08-26T15:39:34.423Z,101521.75
2022-08-26T15:44:36.683Z,101518.78
2022-08-26T15:49:40.192Z,101512.16
2022-08-26T15:54:42.376Z,101523.69
2022-08-26T15:59:45.587Z,101523.22
2022-08-26T16:04:47.763Z,101525.44
2022-08-26T16:09:52.028Z,101528.19
2022-08-26T16:14:56.397Z,101536.78
2022-08-26T16:19:58.675Z,101539.19
2022-08-26T16:25:00.839Z,101543.59
2022-08-26T16:30:06.963Z,101546.69
2022-08-26T16:35:09.167Z,101537.09
2022-08-26T16:40:11.611Z,101553.81
2022-08-26T16:45:14.100Z,101546.56
2022-08-26T16:50:18.562Z,101531.03
2022-08-26T16:55:22.394Z,101526.19
2022-08-26T17:00:27.671Z,101529.25
2022-08-26T17:05:29.989Z,101535.56
2022-08-26T17:10:32.909Z,101536.84
2022-08-26T17:15:35.230Z,101558.72
2022-08-26T17:20:37.507Z,101552.41
2022-08-26T17:25:40.268Z,101567.38
2022-08-26T17:30:42.805Z,101567.09
2022-08-26T17:35:45.054Z,101570.47
2022-08-26T17:40:47.403Z,101586.81
2022-08-26T17:45:49.789Z,101598.56
2022-08-26T17:50:52.464Z,101597.31
2022-08-26T17:55:54.653Z,101600.78
2022-08-26T18:00:56.808Z,101597.81
2022-08-26T18:05:59.016Z,101593.78
2022-08-26T18:11:01.228Z,101599.47
2022-08-26T18:16:06.488Z,101600.47
2022-08-26T18:21:15.959Z,101607.00
2022-08-26T18:26:26.750Z,101621.81
2022-08-26T18:31:29.994Z,101615.94
2022-08-26T18:36:36.855Z,101614.41
2022-08-26T18:41:51.233Z,101613.69
2022-08-26T18:46:53.463Z,101628.19
2022-08-26T18:51:55.620Z,101626.78
2022-08-26T18:56:57.911Z,101627.16
2022-08-26T19:02:00.251Z,101630.22
2022-08-26T19:07:02.677Z,101633.84
2022-08-26T19:12:05.369Z,101636.19
2022-08-26T19:17:07.896Z,101628.03
2022-08-26T19:22:10.094Z,101639.19
2022-08-26T19:27:14.871Z,101636.88
2022-08-26T19:32:17.286Z,101632.56
2022-08-26T19:37:21.408Z,101633.25
2022-08-26T19:42:23.561Z,101628.00
2022-08-26T19:47:25.801Z,101628.59
2022-08-26T19:52:30.174Z,101625.50
2022-08-26T19:57:33.520Z,101631.03
2022-08-26T20:02:35.812Z,101634.41
2022-08-26T20:07:38.096Z,101638.16
2022-08-26T20:12:41.153Z,101637.31
2022-08-26T20:17:43.193Z,101635.63
2022-08-26T20:22:45.276Z,101632.84
2022-08-26T20:27:47.686Z,101626.44
2022-08-26T20:32:49.864Z,101625.63
2022-08-26T20:37:51.989Z,101639.97
2022-08-26T20:42:54.231Z,101639.09
2022-08-26T20:47:56.443Z,101643.56
2022-08-26T20:52:59.161Z,101641.41
2022-08-26T20:58:01.412Z,101636.13
2022-08-26T21:03:03.647Z,101636.34
2022-08-26T21:08:05.877Z,101647.94
2022-08-26T21:13:08.261Z,101651.16
2022-08-26T21:18:11.523Z,101650.34
2022-08-26T21:23:13.917Z,101647.56
2022-08-26T21:28:16.351Z,101643.94
2022-08-26T21:33:18.591Z,101646.72
2022-08-26T21:38:21.691Z,101631.19
2022-08-26T21:43:35.220Z,101639.28
2022-08-26T21:48:39.171Z,101635.06
2022-08-26T21:53:41.381Z,101638.53
2022-08-26T21:58:43.657Z,101641.19
2022-08-26T22:03:47.243Z,101640.38
2022-08-26T22:08:50.437Z,101646.63
2022-08-26T22:13:52.733Z,101649.41
2022-08-26T22:18:54.931Z,101643.38
2022-08-26T22:23:58.665Z,101657.72
2022-08-26T22:29:02.017Z,101661.34
2022-08-26T22:34:09.220Z,101655.69
2022-08-26T22:39:13.178Z,101669.19
2022-08-26T22:44:16.894Z,101673.88
2022-08-26T22:49:19.066Z,101669.53
2022-08-26T22:54:21.235Z,101663.53
2022-08-26T22:59:23.371Z,101666.28
2022-08-26T23:04:25.574Z,101664.84
2022-08-26T23:09:27.692Z,101660.16
2022-08-26T23:14:32.091Z,101659.81
2022-08-26T23:19:34.261Z,101660.16
2022-08-26T23:24:36.388Z,101662.34
2022-08-26T23:29:38.545Z,101664.88
2022-08-26T23:34:40.698Z,101652.81
2022-08-26T23:39:43.620Z,101652.91
2022-08-26T23:44:45.827Z,101653.03
2022-08-26T23:49:47.972Z,101646.31
2022-08-26T23:54:50.345Z,101636.53
2022-08-26T23:59:52.856Z,101642.22
